IAE8254 USPP-UWGG
Flight info
| Callsign | IAE8254 |
|---|---|
| Flight time | N/A |
| Altitude | 36000 |
| Route | K0822F380 DCT GEBSI M60 BAPTA N604 UNANI T382 GILAM GILAM2P |
| Aircraft | A319/M-SDE3FGHIRWY/LB1 |
Departure
| Time | 2026-04-20 06:54 |
|---|---|
| Airport | Perm International Airport (USPP) |
Arrival
| Time | N/A |
|---|---|
| Airport | Nizhny Novgorod / Strigino International Airport (UWGG) |
| Time | Latitude | Longitude | Altitude | Speed | Heading |
|---|---|---|---|---|---|
| 2026-04-20 06:19 | 57.91912 | 56.02086 | 388 ft | 0 kts | 316° |
| 2026-04-20 06:43 | 57.91912 | 56.02087 | 388 ft | 0 kts | 316° |
| 2026-04-20 06:44 | 57.91912 | 56.02086 | 388 ft | 0 kts | 316° |
| 2026-04-20 06:44 | 57.91906 | 56.02098 | 388 ft | 2 kts | 316° |
| 2026-04-20 06:45 | 57.91895 | 56.02118 | 389 ft | 2 kts | 316° |
| 2026-04-20 06:45 | 57.91884 | 56.02136 | 389 ft | 1 kts | 330° |
| 2026-04-20 06:45 | 57.91871 | 56.02145 | 389 ft | 2 kts | 355° |
| 2026-04-20 06:45 | 57.91856 | 56.02142 | 389 ft | 2 kts | 19° |
| 2026-04-20 06:46 | 57.91845 | 56.02130 | 390 ft | 1 kts | 41° |
| 2026-04-20 06:46 | 57.91841 | 56.02122 | 390 ft | 1 kts | 48° |
| 2026-04-20 06:46 | 57.91839 | 56.02119 | 390 ft | 0 kts | 47° |
| 2026-04-20 06:48 | 57.91845 | 56.02130 | 390 ft | 2 kts | 47° |
| 2026-04-20 06:49 | 57.91870 | 56.02178 | 389 ft | 6 kts | 45° |
| 2026-04-20 06:49 | 57.91907 | 56.02247 | 390 ft | 6 kts | 45° |
| 2026-04-20 06:49 | 57.91944 | 56.02320 | 391 ft | 9 kts | 47° |
| 2026-04-20 06:49 | 57.91996 | 56.02424 | 390 ft | 13 kts | 46° |
| 2026-04-20 06:50 | 57.92067 | 56.02561 | 389 ft | 15 kts | 45° |
| 2026-04-20 06:50 | 57.92146 | 56.02713 | 388 ft | 16 kts | 46° |
| 2026-04-20 06:50 | 57.92231 | 56.02879 | 386 ft | 17 kts | 45° |
| 2026-04-20 06:50 | 57.92310 | 56.03029 | 387 ft | 15 kts | 46° |
| 2026-04-20 06:51 | 57.92388 | 56.03183 | 387 ft | 16 kts | 46° |
| 2026-04-20 06:51 | 57.92468 | 56.03337 | 388 ft | 16 kts | 46° |
| 2026-04-20 06:51 | 57.92547 | 56.03490 | 389 ft | 16 kts | 45° |
| 2026-04-20 06:51 | 57.92614 | 56.03620 | 390 ft | 10 kts | 46° |
| 2026-04-20 06:52 | 57.92638 | 56.03699 | 390 ft | 6 kts | 97° |
| 2026-04-20 06:52 | 57.92601 | 56.03785 | 389 ft | 9 kts | 135° |
| 2026-04-20 06:52 | 57.92545 | 56.03884 | 388 ft | 12 kts | 137° |
| 2026-04-20 06:52 | 57.92482 | 56.03994 | 387 ft | 11 kts | 136° |
| 2026-04-20 06:53 | 57.92438 | 56.04047 | 387 ft | 6 kts | 184° |
| 2026-04-20 06:53 | 57.92410 | 56.04004 | 389 ft | 4 kts | 239° |
| 2026-04-20 06:53 | 57.92393 | 56.03967 | 390 ft | 3 kts | 226° |
| 2026-04-20 06:53 | 57.92358 | 56.03899 | 390 ft | 20 kts | 226° |
| 2026-04-20 06:54 | 57.92057 | 56.03315 | 391 ft | 102 kts | 225° |
| 2026-04-20 06:54 | 57.91406 | 56.02060 | 467 ft | 159 kts | 225° |
| 2026-04-20 06:54 | 57.90615 | 56.00532 | 1082 ft | 168 kts | 224° |
| 2026-04-20 06:54 | 57.89808 | 55.98972 | 1854 ft | 172 kts | 223° |
| 2026-04-20 06:55 | 57.88989 | 55.97370 | 2617 ft | 174 kts | 223° |
| 2026-04-20 06:55 | 57.88108 | 55.95698 | 3213 ft | 187 kts | 222° |
| 2026-04-20 06:55 | 57.87163 | 55.93900 | 3764 ft | 203 kts | 223° |
| 2026-04-20 06:55 | 57.86129 | 55.91920 | 4297 ft | 223 kts | 223° |
| 2026-04-20 06:56 | 57.85144 | 55.89726 | 5150 ft | 224 kts | 240° |
| 2026-04-20 06:56 | 57.84826 | 55.86893 | 6079 ft | 230 kts | 273° |
| 2026-04-20 06:56 | 57.85345 | 55.84158 | 7235 ft | 230 kts | 301° |
| 2026-04-20 06:56 | 57.86554 | 55.82203 | 8185 ft | 240 kts | 332° |
| 2026-04-20 06:57 | 57.88195 | 55.81619 | 8993 ft | 252 kts | 356° |
| 2026-04-20 06:57 | 57.89979 | 55.81392 | 9582 ft | 263 kts | 339° |
| 2026-04-20 06:57 | 57.91544 | 55.79717 | 10110 ft | 268 kts | 314° |
| 2026-04-20 06:57 | 57.92944 | 55.77269 | 10672 ft | 283 kts | 311° |
| 2026-04-20 06:58 | 57.94362 | 55.74594 | 11173 ft | 300 kts | 311° |
| 2026-04-20 06:58 | 57.95859 | 55.71738 | 11793 ft | 312 kts | 311° |
| 2026-04-20 06:58 | 57.97395 | 55.68818 | 12612 ft | 316 kts | 311° |
| 2026-04-20 06:58 | 57.98895 | 55.65871 | 13445 ft | 317 kts | 308° |
| 2026-04-20 06:59 | 58.00318 | 55.62671 | 14242 ft | 319 kts | 306° |
| 2026-04-20 06:59 | 58.01702 | 55.59433 | 14984 ft | 323 kts | 306° |
| 2026-04-20 06:59 | 58.03090 | 55.56162 | 15712 ft | 326 kts | 306° |
| 2026-04-20 06:59 | 58.04504 | 55.52822 | 16441 ft | 328 kts | 305° |
| 2026-04-20 07:00 | 58.05924 | 55.49467 | 17164 ft | 331 kts | 306° |
| 2026-04-20 07:00 | 58.07363 | 55.46063 | 17870 ft | 333 kts | 305° |
| 2026-04-20 07:00 | 58.08799 | 55.42669 | 18550 ft | 335 kts | 305° |
| 2026-04-20 07:00 | 58.10257 | 55.39225 | 19252 ft | 337 kts | 305° |
| 2026-04-20 07:01 | 58.11726 | 55.35766 | 19876 ft | 341 kts | 305° |
| 2026-04-20 07:01 | 58.13191 | 55.32312 | 20484 ft | 344 kts | 303° |
| 2026-04-20 07:01 | 58.14678 | 55.28785 | 21095 ft | 346 kts | 304° |
| 2026-04-20 07:01 | 58.16186 | 55.25200 | 21700 ft | 349 kts | 303° |
| 2026-04-20 07:02 | 58.17690 | 55.21612 | 22294 ft | 351 kts | 303° |
| 2026-04-20 07:02 | 58.19207 | 55.17986 | 22882 ft | 354 kts | 303° |
| 2026-04-20 07:02 | 58.20735 | 55.14321 | 23405 ft | 357 kts | 303° |
| 2026-04-20 07:02 | 58.22262 | 55.10657 | 23961 ft | 359 kts | 302° |
| 2026-04-20 07:03 | 58.23795 | 55.06977 | 24490 ft | 361 kts | 302° |
| 2026-04-20 07:03 | 58.25363 | 55.03206 | 25013 ft | 364 kts | 302° |
| 2026-04-20 07:03 | 58.26915 | 54.99462 | 25519 ft | 366 kts | 302° |
| 2026-04-20 07:03 | 58.28500 | 54.95632 | 26037 ft | 368 kts | 302° |
| 2026-04-20 07:04 | 58.30069 | 54.91834 | 26517 ft | 371 kts | 301° |
| 2026-04-20 07:04 | 58.31506 | 54.87788 | 27007 ft | 368 kts | 294° |
| 2026-04-20 07:04 | 58.32641 | 54.83487 | 27487 ft | 365 kts | 287° |
| 2026-04-20 07:04 | 58.33497 | 54.78979 | 27925 ft | 364 kts | 283° |
| 2026-04-20 07:05 | 58.34255 | 54.74407 | 28338 ft | 366 kts | 282° |
| 2026-04-20 07:05 | 58.35008 | 54.69772 | 28758 ft | 369 kts | 282° |
| 2026-04-20 07:05 | 58.35754 | 54.65147 | 29009 ft | 375 kts | 282° |
| 2026-04-20 07:05 | 58.36533 | 54.60339 | 29182 ft | 383 kts | 282° |
| 2026-04-20 07:06 | 58.37318 | 54.55480 | 29466 ft | 388 kts | 282° |
| 2026-04-20 07:06 | 58.38106 | 54.50610 | 29851 ft | 389 kts | 282° |
| 2026-04-20 07:06 | 58.38901 | 54.45687 | 30246 ft | 391 kts | 282° |
| 2026-04-20 07:06 | 58.39696 | 54.40754 | 30612 ft | 392 kts | 282° |
| 2026-04-20 07:07 | 58.40489 | 54.35813 | 31048 ft | 392 kts | 282° |
| 2026-04-20 07:07 | 58.41280 | 54.30864 | 31530 ft | 390 kts | 281° |
| 2026-04-20 07:07 | 58.42065 | 54.25931 | 31985 ft | 389 kts | 281° |
| 2026-04-20 07:07 | 58.42839 | 54.21051 | 32389 ft | 388 kts | 282° |
| 2026-04-20 07:08 | 58.43619 | 54.16134 | 32789 ft | 388 kts | 282° |
| 2026-04-20 07:08 | 58.44386 | 54.11277 | 33174 ft | 387 kts | 282° |
| 2026-04-20 07:08 | 58.45157 | 54.06398 | 33573 ft | 386 kts | 282° |
| 2026-04-20 07:08 | 58.45927 | 54.01494 | 33965 ft | 385 kts | 282° |
| 2026-04-20 07:09 | 58.46690 | 53.96621 | 34316 ft | 385 kts | 282° |
| 2026-04-20 07:09 | 58.47458 | 53.91711 | 34597 ft | 386 kts | 282° |
| 2026-04-20 07:09 | 58.48222 | 53.86813 | 34848 ft | 387 kts | 282° |
| 2026-04-20 07:09 | 58.48982 | 53.81930 | 35014 ft | 389 kts | 282° |
| 2026-04-20 07:10 | 58.49752 | 53.76974 | 35154 ft | 390 kts | 282° |
| 2026-04-20 07:10 | 58.50519 | 53.72028 | 35305 ft | 391 kts | 282° |
| 2026-04-20 07:10 | 58.51284 | 53.67067 | 35441 ft | 393 kts | 282° |
| 2026-04-20 07:10 | 58.52058 | 53.62046 | 35561 ft | 395 kts | 282° |
| 2026-04-20 07:11 | 58.52826 | 53.57041 | 35689 ft | 396 kts | 282° |
| 2026-04-20 07:11 | 58.53606 | 53.51942 | 35798 ft | 398 kts | 282° |
| 2026-04-20 07:11 | 58.54377 | 53.46890 | 35872 ft | 399 kts | 283° |
| 2026-04-20 07:12 | 58.55920 | 53.36739 | 35875 ft | 400 kts | 283° |
| 2026-04-20 07:12 | 58.57463 | 53.26509 | 35873 ft | 400 kts | 282° |
| 2026-04-20 07:12 | 58.58224 | 53.21446 | 36062 ft | 399 kts | 282° |
| 2026-04-20 07:13 | 58.58990 | 53.16333 | 35984 ft | 398 kts | 282° |
| 2026-04-20 07:13 | 58.60499 | 53.06209 | 35916 ft | 399 kts | 282° |
| 2026-04-20 07:14 | 58.62013 | 52.95974 | 35903 ft | 399 kts | 282° |
| 2026-04-20 07:14 | 58.63256 | 52.85754 | 35895 ft | 395 kts | 274° |
| 2026-04-20 07:15 | 58.63461 | 52.75289 | 35898 ft | 393 kts | 264° |
| 2026-04-20 07:15 | 58.62595 | 52.65019 | 35900 ft | 392 kts | 254° |
| 2026-04-20 07:16 | 58.60812 | 52.55188 | 35899 ft | 393 kts | 249° |
| 2026-04-20 07:16 | 58.58843 | 52.45451 | 35908 ft | 393 kts | 249° |
| 2026-04-20 07:17 | 58.56873 | 52.35796 | 35907 ft | 394 kts | 248° |
| 2026-04-20 07:17 | 58.54871 | 52.26021 | 35913 ft | 394 kts | 248° |
| 2026-04-20 07:18 | 58.52870 | 52.16296 | 35906 ft | 394 kts | 248° |
| 2026-04-20 07:18 | 58.50870 | 52.06657 | 35903 ft | 394 kts | 248° |
| 2026-04-20 07:19 | 58.48838 | 51.96933 | 35906 ft | 394 kts | 248° |
| 2026-04-20 07:19 | 58.46807 | 51.87263 | 35912 ft | 395 kts | 247° |
| 2026-04-20 07:20 | 58.44765 | 51.77586 | 35914 ft | 395 kts | 247° |
| 2026-04-20 07:20 | 58.42658 | 51.67989 | 35921 ft | 395 kts | 244° |
| 2026-04-20 07:21 | 58.40083 | 51.58767 | 35922 ft | 395 kts | 239° |
| 2026-04-20 07:21 | 58.37133 | 51.49983 | 35920 ft | 395 kts | 238° |
| 2026-04-20 07:22 | 58.34170 | 51.41256 | 35919 ft | 395 kts | 237° |
| 2026-04-20 07:22 | 58.31192 | 51.32525 | 35921 ft | 395 kts | 237° |
| 2026-04-20 07:23 | 58.28199 | 51.23768 | 35916 ft | 395 kts | 237° |
| 2026-04-20 07:23 | 58.25215 | 51.15085 | 35908 ft | 395 kts | 237° |
| 2026-04-20 07:24 | 58.22208 | 51.06378 | 35690 ft | 396 kts | 237° |
| 2026-04-20 07:24 | 58.20704 | 51.02036 | 36067 ft | 397 kts | 236° |
| 2026-04-20 07:24 | 58.19194 | 50.97685 | 35710 ft | 397 kts | 237° |
| 2026-04-20 07:25 | 58.16156 | 50.88959 | 35812 ft | 399 kts | 237° |
| 2026-04-20 07:25 | 58.13124 | 50.80275 | 35851 ft | 399 kts | 237° |
| 2026-04-20 07:25 | 58.11599 | 50.75922 | 36076 ft | 398 kts | 236° |
| 2026-04-20 07:26 | 58.10068 | 50.71563 | 35764 ft | 397 kts | 236° |
| 2026-04-20 07:26 | 58.07029 | 50.62931 | 35839 ft | 399 kts | 236° |
| 2026-04-20 07:27 | 58.03953 | 50.54219 | 35869 ft | 398 kts | 236° |
| 2026-04-20 07:27 | 58.00890 | 50.45571 | 35879 ft | 398 kts | 236° |
| 2026-04-20 07:28 | 57.97824 | 50.36944 | 35877 ft | 399 kts | 236° |
| 2026-04-20 07:28 | 57.94748 | 50.28308 | 35875 ft | 399 kts | 236° |
| 2026-04-20 07:29 | 57.91665 | 50.19684 | 35877 ft | 399 kts | 235° |
| 2026-04-20 07:29 | 57.88555 | 50.11059 | 35876 ft | 400 kts | 235° |
| 2026-04-20 07:30 | 57.85527 | 50.02373 | 35875 ft | 400 kts | 239° |
| 2026-04-20 07:30 | 57.82939 | 49.93189 | 35867 ft | 401 kts | 243° |
| 2026-04-20 07:30 | 57.81703 | 49.88485 | 36041 ft | 400 kts | 243° |
| 2026-04-20 07:31 | 57.80479 | 49.83841 | 35960 ft | 399 kts | 243° |
| 2026-04-20 07:31 | 57.78042 | 49.74617 | 35883 ft | 399 kts | 243° |
| 2026-04-20 07:32 | 57.75583 | 49.65333 | 35860 ft | 399 kts | 242° |
| 2026-04-20 07:32 | 57.73119 | 49.56060 | 35847 ft | 400 kts | 242° |
| 2026-04-20 07:33 | 57.70644 | 49.46784 | 35846 ft | 400 kts | 242° |
| 2026-04-20 07:33 | 57.68161 | 49.37517 | 35843 ft | 400 kts | 242° |
| 2026-04-20 07:34 | 57.65673 | 49.28254 | 35835 ft | 401 kts | 242° |
| 2026-04-20 07:34 | 57.63168 | 49.18953 | 35834 ft | 401 kts | 242° |
| 2026-04-20 07:35 | 57.59414 | 49.05111 | 35837 ft | 402 kts | 242° |
| 2026-04-20 07:35 | 57.56889 | 48.95853 | 35836 ft | 403 kts | 241° |